sensor_id;sensor_type;location;lat;lon;timestamp;P1;durP1;ratioP1;P2;durP2;ratioP2
5823;SDS011;2938;52.254;12.988;2024-01-30T00:00:00;12.50;;;6.50;;
5823;SDS011;2938;52.254;12.988;2024-01-30T00:02:25;13.70;;;8.43;;
5823;SDS011;2938;52.254;12.988;2024-01-30T00:04:53;16.13;;;8.57;;
5823;SDS011;2938;52.254;12.988;2024-01-30T00:07:19;21.92;;;8.65;;
5823;SDS011;2938;52.254;12.988;2024-01-30T00:09:46;20.80;;;8.45;;
5823;SDS011;2938;52.254;12.988;2024-01-30T00:12:12;14.82;;;9.00;;
5823;SDS011;2938;52.254;12.988;2024-01-30T00:14:37;13.82;;;8.43;;
5823;SDS011;2938;52.254;12.988;2024-01-30T00:17:03;14.23;;;7.93;;
5823;SDS011;2938;52.254;12.988;2024-01-30T00:19:29;11.77;;;7.22;;
5823;SDS011;2938;52.254;12.988;2024-01-30T00:21:54;18.30;;;8.65;;
5823;SDS011;2938;52.254;12.988;2024-01-30T00:24:20;13.63;;;8.90;;
5823;SDS011;2938;52.254;12.988;2024-01-30T00:26:45;15.18;;;8.52;;
5823;SDS011;2938;52.254;12.988;2024-01-30T00:29:14;12.32;;;8.32;;
5823;SDS011;2938;52.254;12.988;2024-01-30T00:31:44;18.27;;;8.75;;
5823;SDS011;2938;52.254;12.988;2024-01-30T00:34:10;15.55;;;7.65;;
5823;SDS011;2938;52.254;12.988;2024-01-30T00:36:36;26.05;;;8.93;;
5823;SDS011;2938;52.254;12.988;2024-01-30T00:39:02;15.93;;;8.43;;
5823;SDS011;2938;52.254;12.988;2024-01-30T00:41:31;12.07;;;7.82;;
5823;SDS011;2938;52.254;12.988;2024-01-30T00:43:56;13.68;;;7.13;;
5823;SDS011;2938;52.254;12.988;2024-01-30T00:46:21;16.52;;;8.75;;
5823;SDS011;2938;52.254;12.988;2024-01-30T00:48:47;16.77;;;8.82;;
5823;SDS011;2938;52.254;12.988;2024-01-30T00:51:12;16.50;;;8.18;;
5823;SDS011;2938;52.254;12.988;2024-01-30T00:53:38;12.77;;;7.60;;
5823;SDS011;2938;52.254;12.988;2024-01-30T00:56:04;19.45;;;10.35;;
5823;SDS011;2938;52.254;12.988;2024-01-30T00:58:29;12.25;;;7.60;;
5823;SDS011;2938;52.254;12.988;2024-01-30T01:00:57;10.73;;;7.80;;
5823;SDS011;2938;52.254;12.988;2024-01-30T01:03:22;18.70;;;9.55;;
5823;SDS011;2938;52.254;12.988;2024-01-30T01:05:48;15.98;;;8.40;;
5823;SDS011;2938;52.254;12.988;2024-01-30T01:08:13;15.38;;;8.18;;
5823;SDS011;2938;52.254;12.988;2024-01-30T01:10:43;13.32;;;7.72;;
5823;SDS011;2938;52.254;12.988;2024-01-30T01:13:08;12.45;;;7.95;;
5823;SDS011;2938;52.254;12.988;2024-01-30T01:15:39;17.05;;;9.52;;
5823;SDS011;2938;52.254;12.988;2024-01-30T01:18:05;15.57;;;7.23;;
5823;SDS011;2938;52.254;12.988;2024-01-30T01:20:30;18.38;;;9.60;;
5823;SDS011;2938;52.254;12.988;2024-01-30T01:22:58;16.35;;;9.55;;
5823;SDS011;2938;52.254;12.988;2024-01-30T01:25:24;18.73;;;9.48;;
5823;SDS011;2938;52.254;12.988;2024-01-30T01:27:52;14.32;;;8.85;;
5823;SDS011;2938;52.254;12.988;2024-01-30T01:30:18;17.33;;;9.80;;
5823;SDS011;2938;52.254;12.988;2024-01-30T01:32:48;17.92;;;9.30;;
5823;SDS011;2938;52.254;12.988;2024-01-30T01:35:23;19.58;;;9.77;;
5823;SDS011;2938;52.254;12.988;2024-01-30T01:37:53;22.08;;;10.75;;
5823;SDS011;2938;52.254;12.988;2024-01-30T01:40:21;17.58;;;9.85;;
5823;SDS011;2938;52.254;12.988;2024-01-30T01:42:50;18.80;;;9.55;;
5823;SDS011;2938;52.254;12.988;2024-01-30T01:45:26;14.90;;;9.13;;
5823;SDS011;2938;52.254;12.988;2024-01-30T01:47:57;18.92;;;8.98;;
5823;SDS011;2938;52.254;12.988;2024-01-30T01:50:31;14.65;;;8.75;;
5823;SDS011;2938;52.254;12.988;2024-01-30T01:52:56;15.98;;;8.85;;
5823;SDS011;2938;52.254;12.988;2024-01-30T01:55:22;15.65;;;9.18;;
5823;SDS011;2938;52.254;12.988;2024-01-30T01:57:49;24.67;;;9.15;;
5823;SDS011;2938;52.254;12.988;2024-01-30T02:00:14;16.00;;;9.02;;
5823;SDS011;2938;52.254;12.988;2024-01-30T02:02:40;12.80;;;8.98;;
5823;SDS011;2938;52.254;12.988;2024-01-30T02:05:06;16.63;;;9.43;;
5823;SDS011;2938;52.254;12.988;2024-01-30T02:07:32;16.40;;;10.30;;
5823;SDS011;2938;52.254;12.988;2024-01-30T02:09:58;16.65;;;10.45;;
5823;SDS011;2938;52.254;12.988;2024-01-30T02:12:23;14.07;;;8.77;;
5823;SDS011;2938;52.254;12.988;2024-01-30T02:14:50;19.25;;;10.15;;
5823;SDS011;2938;52.254;12.988;2024-01-30T02:17:16;14.65;;;8.18;;
5823;SDS011;2938;52.254;12.988;2024-01-30T02:19:41;17.52;;;8.65;;
5823;SDS011;2938;52.254;12.988;2024-01-30T02:22:07;19.02;;;9.50;;
5823;SDS011;2938;52.254;12.988;2024-01-30T02:24:33;15.90;;;8.15;;
5823;SDS011;2938;52.254;12.988;2024-01-30T02:26:58;14.90;;;9.43;;
5823;SDS011;2938;52.254;12.988;2024-01-30T02:29:23;16.83;;;9.38;;
5823;SDS011;2938;52.254;12.988;2024-01-30T02:31:49;15.77;;;9.23;;
5823;SDS011;2938;52.254;12.988;2024-01-30T02:34:14;13.02;;;8.98;;
5823;SDS011;2938;52.254;12.988;2024-01-30T02:36:43;18.42;;;10.00;;
5823;SDS011;2938;52.254;12.988;2024-01-30T02:39:09;13.70;;;7.85;;
5823;SDS011;2938;52.254;12.988;2024-01-30T02:41:34;27.42;;;9.95;;
5823;SDS011;2938;52.254;12.988;2024-01-30T02:44:00;17.13;;;8.63;;
5823;SDS011;2938;52.254;12.988;2024-01-30T02:46:25;15.50;;;9.43;;
5823;SDS011;2938;52.254;12.988;2024-01-30T02:48:51;15.00;;;10.27;;
5823;SDS011;2938;52.254;12.988;2024-01-30T02:51:16;16.80;;;9.90;;
5823;SDS011;2938;52.254;12.988;2024-01-30T02:53:41;15.93;;;9.43;;
5823;SDS011;2938;52.254;12.988;2024-01-30T02:56:07;15.05;;;9.52;;
5823;SDS011;2938;52.254;12.988;2024-01-30T02:58:34;13.85;;;8.93;;
5823;SDS011;2938;52.254;12.988;2024-01-30T03:01:00;13.30;;;9.45;;
5823;SDS011;2938;52.254;12.988;2024-01-30T03:03:26;14.77;;;8.05;;
5823;SDS011;2938;52.254;12.988;2024-01-30T03:05:51;15.88;;;9.25;;
5823;SDS011;2938;52.254;12.988;2024-01-30T03:08:16;12.70;;;8.07;;
5823;SDS011;2938;52.254;12.988;2024-01-30T03:10:42;18.55;;;10.10;;
5823;SDS011;2938;52.254;12.988;2024-01-30T03:13:07;19.27;;;9.80;;
5823;SDS011;2938;52.254;12.988;2024-01-30T03:15:32;16.67;;;8.65;;
5823;SDS011;2938;52.254;12.988;2024-01-30T03:17:58;17.10;;;9.00;;
5823;SDS011;2938;52.254;12.988;2024-01-30T03:20:23;14.82;;;8.35;;
5823;SDS011;2938;52.254;12.988;2024-01-30T03:22:49;14.68;;;8.73;;
5823;SDS011;2938;52.254;12.988;2024-01-30T03:25:14;15.38;;;8.95;;
5823;SDS011;2938;52.254;12.988;2024-01-30T03:27:39;14.82;;;8.90;;
5823;SDS011;2938;52.254;12.988;2024-01-30T03:30:05;17.73;;;9.65;;
5823;SDS011;2938;52.254;12.988;2024-01-30T03:32:31;15.68;;;8.85;;
5823;SDS011;2938;52.254;12.988;2024-01-30T03:34:56;13.10;;;8.18;;
5823;SDS011;2938;52.254;12.988;2024-01-30T03:37:23;20.35;;;9.70;;
5823;SDS011;2938;52.254;12.988;2024-01-30T03:39:48;12.57;;;8.25;;
5823;SDS011;2938;52.254;12.988;2024-01-30T03:42:13;15.00;;;9.95;;
5823;SDS011;2938;52.254;12.988;2024-01-30T03:44:39;13.77;;;7.85;;
5823;SDS011;2938;52.254;12.988;2024-01-30T03:47:04;11.13;;;7.78;;
5823;SDS011;2938;52.254;12.988;2024-01-30T03:49:29;16.73;;;9.40;;
5823;SDS011;2938;52.254;12.988;2024-01-30T03:51:54;18.38;;;9.05;;
5823;SDS011;2938;52.254;12.988;2024-01-30T03:54:20;16.77;;;8.07;;
5823;SDS011;2938;52.254;12.988;2024-01-30T03:56:45;20.50;;;9.82;;
5823;SDS011;2938;52.254;12.988;2024-01-30T03:59:10;20.23;;;9.05;;
5823;SDS011;2938;52.254;12.988;2024-01-30T04:01:36;16.92;;;8.60;;
5823;SDS011;2938;52.254;12.988;2024-01-30T04:04:01;13.70;;;8.77;;
5823;SDS011;2938;52.254;12.988;2024-01-30T04:06:26;15.25;;;9.45;;
5823;SDS011;2938;52.254;12.988;2024-01-30T04:08:52;14.88;;;9.13;;
5823;SDS011;2938;52.254;12.988;2024-01-30T04:11:18;15.68;;;9.13;;
5823;SDS011;2938;52.254;12.988;2024-01-30T04:13:44;15.20;;;10.20;;
5823;SDS011;2938;52.254;12.988;2024-01-30T04:16:18;15.65;;;8.18;;
5823;SDS011;2938;52.254;12.988;2024-01-30T04:18:45;16.17;;;8.82;;
5823;SDS011;2938;52.254;12.988;2024-01-30T04:21:10;12.90;;;8.30;;
5823;SDS011;2938;52.254;12.988;2024-01-30T04:23:35;16.15;;;9.50;;
5823;SDS011;2938;52.254;12.988;2024-01-30T04:26:01;18.13;;;9.20;;
5823;SDS011;2938;52.254;12.988;2024-01-30T04:28:26;13.00;;;8.63;;
5823;SDS011;2938;52.254;12.988;2024-01-30T04:30:51;15.25;;;9.77;;
5823;SDS011;2938;52.254;12.988;2024-01-30T04:33:17;26.30;;;9.55;;
5823;SDS011;2938;52.254;12.988;2024-01-30T04:35:43;15.85;;;9.75;;
5823;SDS011;2938;52.254;12.988;2024-01-30T04:38:08;14.38;;;8.82;;
5823;SDS011;2938;52.254;12.988;2024-01-30T04:40:34;13.38;;;8.23;;
5823;SDS011;2938;52.254;12.988;2024-01-30T04:42:59;22.33;;;10.77;;
5823;SDS011;2938;52.254;12.988;2024-01-30T04:45:24;15.52;;;10.23;;
5823;SDS011;2938;52.254;12.988;2024-01-30T04:47:49;13.27;;;8.50;;
5823;SDS011;2938;52.254;12.988;2024-01-30T04:50:15;15.85;;;8.75;;
5823;SDS011;2938;52.254;12.988;2024-01-30T04:52:40;21.05;;;9.85;;
5823;SDS011;2938;52.254;12.988;2024-01-30T04:55:06;17.65;;;9.90;;
5823;SDS011;2938;52.254;12.988;2024-01-30T04:57:32;18.55;;;10.27;;
5823;SDS011;2938;52.254;12.988;2024-01-30T04:59:58;18.60;;;11.05;;
5823;SDS011;2938;52.254;12.988;2024-01-30T05:02:24;13.70;;;8.20;;
5823;SDS011;2938;52.254;12.988;2024-01-30T05:04:49;13.85;;;8.63;;
5823;SDS011;2938;52.254;12.988;2024-01-30T05:07:14;18.33;;;9.18;;
5823;SDS011;2938;52.254;12.988;2024-01-30T05:09:40;13.55;;;9.10;;
5823;SDS011;2938;52.254;12.988;2024-01-30T05:12:06;27.90;;;12.00;;
5823;SDS011;2938;52.254;12.988;2024-01-30T05:14:32;26.00;;;11.57;;
5823;SDS011;2938;52.254;12.988;2024-01-30T05:16:57;17.55;;;9.18;;
5823;SDS011;2938;52.254;12.988;2024-01-30T05:19:23;17.33;;;10.65;;
5823;SDS011;2938;52.254;12.988;2024-01-30T05:21:48;18.95;;;8.85;;
5823;SDS011;2938;52.254;12.988;2024-01-30T05:24:14;17.92;;;8.18;;
5823;SDS011;2938;52.254;12.988;2024-01-30T05:26:39;12.45;;;8.18;;
5823;SDS011;2938;52.254;12.988;2024-01-30T05:29:05;17.77;;;9.02;;
5823;SDS011;2938;52.254;12.988;2024-01-30T05:31:30;15.85;;;10.23;;
5823;SDS011;2938;52.254;12.988;2024-01-30T05:33:55;15.55;;;8.43;;
5823;SDS011;2938;52.254;12.988;2024-01-30T05:36:21;17.30;;;10.73;;
5823;SDS011;2938;52.254;12.988;2024-01-30T05:38:51;26.27;;;10.50;;
5823;SDS011;2938;52.254;12.988;2024-01-30T05:41:17;15.95;;;10.25;;
5823;SDS011;2938;52.254;12.988;2024-01-30T05:43:42;16.15;;;8.40;;
5823;SDS011;2938;52.254;12.988;2024-01-30T05:46:07;15.70;;;9.30;;
5823;SDS011;2938;52.254;12.988;2024-01-30T05:48:33;13.68;;;8.70;;
5823;SDS011;2938;52.254;12.988;2024-01-30T05:51:00;18.00;;;10.75;;
5823;SDS011;2938;52.254;12.988;2024-01-30T05:53:25;15.30;;;8.70;;
5823;SDS011;2938;52.254;12.988;2024-01-30T05:55:51;13.35;;;9.35;;
5823;SDS011;2938;52.254;12.988;2024-01-30T05:58:16;13.73;;;8.60;;
5823;SDS011;2938;52.254;12.988;2024-01-30T06:00:41;20.02;;;8.80;;
5823;SDS011;2938;52.254;12.988;2024-01-30T06:03:07;22.30;;;9.85;;
5823;SDS011;2938;52.254;12.988;2024-01-30T06:05:33;13.43;;;8.82;;
5823;SDS011;2938;52.254;12.988;2024-01-30T06:07:58;16.98;;;9.18;;
5823;SDS011;2938;52.254;12.988;2024-01-30T06:10:23;20.75;;;10.73;;
5823;SDS011;2938;52.254;12.988;2024-01-30T06:12:49;19.00;;;9.60;;
5823;SDS011;2938;52.254;12.988;2024-01-30T06:15:14;16.55;;;9.07;;
5823;SDS011;2938;52.254;12.988;2024-01-30T06:17:39;19.35;;;10.52;;
5823;SDS011;2938;52.254;12.988;2024-01-30T06:20:05;19.55;;;10.23;;
5823;SDS011;2938;52.254;12.988;2024-01-30T06:22:31;17.90;;;8.80;;
5823;SDS011;2938;52.254;12.988;2024-01-30T06:24:56;19.05;;;9.25;;
5823;SDS011;2938;52.254;12.988;2024-01-30T06:27:21;18.88;;;9.55;;
5823;SDS011;2938;52.254;12.988;2024-01-30T06:29:47;17.00;;;9.65;;
5823;SDS011;2938;52.254;12.988;2024-01-30T06:32:12;17.35;;;8.68;;
5823;SDS011;2938;52.254;12.988;2024-01-30T06:34:37;17.20;;;9.93;;
5823;SDS011;2938;52.254;12.988;2024-01-30T06:37:04;22.98;;;10.25;;
5823;SDS011;2938;52.254;12.988;2024-01-30T06:39:30;16.42;;;10.38;;
5823;SDS011;2938;52.254;12.988;2024-01-30T06:41:55;17.10;;;10.70;;
5823;SDS011;2938;52.254;12.988;2024-01-30T06:44:21;14.10;;;10.30;;
5823;SDS011;2938;52.254;12.988;2024-01-30T06:46:46;18.50;;;9.52;;
5823;SDS011;2938;52.254;12.988;2024-01-30T06:49:11;15.55;;;9.25;;
5823;SDS011;2938;52.254;12.988;2024-01-30T06:51:37;24.55;;;9.20;;
5823;SDS011;2938;52.254;12.988;2024-01-30T06:54:02;16.55;;;10.20;;
5823;SDS011;2938;52.254;12.988;2024-01-30T06:56:28;18.10;;;10.35;;
5823;SDS011;2938;52.254;12.988;2024-01-30T06:58:53;15.13;;;8.88;;
5823;SDS011;2938;52.254;12.988;2024-01-30T07:01:18;17.30;;;9.05;;
5823;SDS011;2938;52.254;12.988;2024-01-30T07:03:44;17.50;;;8.45;;
5823;SDS011;2938;52.254;12.988;2024-01-30T07:06:09;14.98;;;8.50;;
5823;SDS011;2938;52.254;12.988;2024-01-30T07:08:36;18.48;;;8.73;;
5823;SDS011;2938;52.254;12.988;2024-01-30T07:11:03;17.75;;;11.00;;
5823;SDS011;2938;52.254;12.988;2024-01-30T07:13:29;21.50;;;12.10;;
5823;SDS011;2938;52.254;12.988;2024-01-30T07:15:55;13.05;;;8.73;;
5823;SDS011;2938;52.254;12.988;2024-01-30T07:18:20;14.48;;;10.13;;
5823;SDS011;2938;52.254;12.988;2024-01-30T07:20:45;20.48;;;9.93;;
5823;SDS011;2938;52.254;12.988;2024-01-30T07:23:12;19.00;;;9.52;;
5823;SDS011;2938;52.254;12.988;2024-01-30T07:25:39;17.23;;;9.25;;
5823;SDS011;2938;52.254;12.988;2024-01-30T07:28:06;21.50;;;9.00;;
5823;SDS011;2938;52.254;12.988;2024-01-30T07:30:32;16.10;;;8.68;;
5823;SDS011;2938;52.254;12.988;2024-01-30T07:32:57;21.35;;;10.93;;
5823;SDS011;2938;52.254;12.988;2024-01-30T07:35:23;15.25;;;8.88;;
5823;SDS011;2938;52.254;12.988;2024-01-30T07:37:48;18.73;;;9.18;;
5823;SDS011;2938;52.254;12.988;2024-01-30T07:40:13;15.57;;;9.77;;
5823;SDS011;2938;52.254;12.988;2024-01-30T07:42:39;17.77;;;10.18;;
5823;SDS011;2938;52.254;12.988;2024-01-30T07:45:04;19.50;;;9.77;;
5823;SDS011;2938;52.254;12.988;2024-01-30T07:47:30;13.07;;;8.07;;
5823;SDS011;2938;52.254;12.988;2024-01-30T07:49:55;16.92;;;9.27;;
5823;SDS011;2938;52.254;12.988;2024-01-30T07:52:20;16.40;;;9.15;;
5823;SDS011;2938;52.254;12.988;2024-01-30T07:54:46;18.73;;;8.93;;
5823;SDS011;2938;52.254;12.988;2024-01-30T07:57:11;13.80;;;8.60;;
5823;SDS011;2938;52.254;12.988;2024-01-30T07:59:36;18.08;;;8.75;;
5823;SDS011;2938;52.254;12.988;2024-01-30T08:02:02;15.88;;;8.93;;
5823;SDS011;2938;52.254;12.988;2024-01-30T08:04:27;21.02;;;7.90;;
5823;SDS011;2938;52.254;12.988;2024-01-30T08:06:52;20.73;;;10.25;;
5823;SDS011;2938;52.254;12.988;2024-01-30T08:09:18;16.75;;;9.35;;
5823;SDS011;2938;52.254;12.988;2024-01-30T08:11:43;15.45;;;8.80;;
5823;SDS011;2938;52.254;12.988;2024-01-30T08:14:08;18.02;;;9.32;;
5823;SDS011;2938;52.254;12.988;2024-01-30T08:16:34;12.95;;;8.45;;
5823;SDS011;2938;52.254;12.988;2024-01-30T08:18:59;13.23;;;8.55;;
5823;SDS011;2938;52.254;12.988;2024-01-30T08:21:26;20.27;;;9.98;;
5823;SDS011;2938;52.254;12.988;2024-01-30T08:23:51;15.30;;;9.45;;
5823;SDS011;2938;52.254;12.988;2024-01-30T08:26:17;12.70;;;8.35;;
5823;SDS011;2938;52.254;12.988;2024-01-30T08:28:43;20.30;;;9.73;;
5823;SDS011;2938;52.254;12.988;2024-01-30T08:31:10;16.60;;;9.25;;
5823;SDS011;2938;52.254;12.988;2024-01-30T08:33:36;16.90;;;7.75;;
5823;SDS011;2938;52.254;12.988;2024-01-30T08:36:02;13.70;;;8.82;;
5823;SDS011;2938;52.254;12.988;2024-01-30T08:38:27;13.63;;;9.18;;
5823;SDS011;2938;52.254;12.988;2024-01-30T08:40:52;17.13;;;9.18;;
5823;SDS011;2938;52.254;12.988;2024-01-30T08:43:19;15.80;;;8.25;;
5823;SDS011;2938;52.254;12.988;2024-01-30T08:45:44;18.70;;;8.65;;
5823;SDS011;2938;52.254;12.988;2024-01-30T08:48:09;11.75;;;8.02;;
5823;SDS011;2938;52.254;12.988;2024-01-30T08:50:35;12.95;;;7.50;;
5823;SDS011;2938;52.254;12.988;2024-01-30T08:53:00;12.25;;;6.55;;
5823;SDS011;2938;52.254;12.988;2024-01-30T08:55:26;17.65;;;9.55;;
5823;SDS011;2938;52.254;12.988;2024-01-30T08:57:51;13.07;;;8.43;;
5823;SDS011;2938;52.254;12.988;2024-01-30T09:00:17;14.98;;;8.23;;
5823;SDS011;2938;52.254;12.988;2024-01-30T09:02:42;12.82;;;8.38;;
5823;SDS011;2938;52.254;12.988;2024-01-30T09:05:07;14.43;;;8.48;;
5823;SDS011;2938;52.254;12.988;2024-01-30T09:07:33;17.48;;;8.57;;
5823;SDS011;2938;52.254;12.988;2024-01-30T09:09:58;11.40;;;7.72;;
5823;SDS011;2938;52.254;12.988;2024-01-30T09:12:23;23.27;;;10.55;;
5823;SDS011;2938;52.254;12.988;2024-01-30T09:14:49;78.00;;;33.78;;
5823;SDS011;2938;52.254;12.988;2024-01-30T09:17:14;102.13;;;48.17;;
5823;SDS011;2938;52.254;12.988;2024-01-30T09:19:40;139.52;;;60.17;;
5823;SDS011;2938;52.254;12.988;2024-01-30T09:22:05;118.00;;;53.17;;
5823;SDS011;2938;52.254;12.988;2024-01-30T09:24:31;94.15;;;43.30;;
5823;SDS011;2938;52.254;12.988;2024-01-30T09:26:56;45.80;;;23.08;;
5823;SDS011;2938;52.254;12.988;2024-01-30T09:29:22;32.08;;;18.33;;
5823;SDS011;2938;52.254;12.988;2024-01-30T09:31:47;34.50;;;16.75;;
5823;SDS011;2938;52.254;12.988;2024-01-30T09:34:13;19.95;;;11.57;;
5823;SDS011;2938;52.254;12.988;2024-01-30T09:36:39;17.95;;;9.30;;
5823;SDS011;2938;52.254;12.988;2024-01-30T09:39:04;16.13;;;9.30;;
5823;SDS011;2938;52.254;12.988;2024-01-30T09:41:32;12.90;;;8.93;;
5823;SDS011;2938;52.254;12.988;2024-01-30T09:43:58;23.35;;;11.07;;
5823;SDS011;2938;52.254;12.988;2024-01-30T09:46:25;12.80;;;8.20;;
5823;SDS011;2938;52.254;12.988;2024-01-30T09:48:52;16.75;;;9.07;;
5823;SDS011;2938;52.254;12.988;2024-01-30T09:51:19;14.45;;;8.50;;
5823;SDS011;2938;52.254;12.988;2024-01-30T09:53:44;13.20;;;9.48;;
5823;SDS011;2938;52.254;12.988;2024-01-30T09:56:10;12.38;;;7.25;;
5823;SDS011;2938;52.254;12.988;2024-01-30T09:58:36;12.27;;;8.20;;
5823;SDS011;2938;52.254;12.988;2024-01-30T10:01:01;14.27;;;9.05;;
5823;SDS011;2938;52.254;12.988;2024-01-30T10:03:27;15.32;;;8.35;;
5823;SDS011;2938;52.254;12.988;2024-01-30T10:05:52;11.93;;;8.13;;
5823;SDS011;2938;52.254;12.988;2024-01-30T10:08:18;12.90;;;8.50;;
5823;SDS011;2938;52.254;12.988;2024-01-30T10:10:46;16.83;;;9.57;;
5823;SDS011;2938;52.254;12.988;2024-01-30T10:13:12;16.40;;;8.45;;
5823;SDS011;2938;52.254;12.988;2024-01-30T10:15:37;15.90;;;9.98;;
5823;SDS011;2938;52.254;12.988;2024-01-30T10:18:04;21.33;;;9.13;;
5823;SDS011;2938;52.254;12.988;2024-01-30T10:20:31;15.43;;;9.40;;
5823;SDS011;2938;52.254;12.988;2024-01-30T10:22:57;17.42;;;9.23;;
5823;SDS011;2938;52.254;12.988;2024-01-30T10:25:23;12.77;;;8.73;;
5823;SDS011;2938;52.254;12.988;2024-01-30T10:27:52;15.05;;;9.45;;
5823;SDS011;2938;52.254;12.988;2024-01-30T10:30:19;16.17;;;8.82;;
5823;SDS011;2938;52.254;12.988;2024-01-30T10:32:44;23.80;;;10.48;;
5823;SDS011;2938;52.254;12.988;2024-01-30T10:35:10;26.80;;;9.77;;
5823;SDS011;2938;52.254;12.988;2024-01-30T10:37:35;26.23;;;10.88;;
5823;SDS011;2938;52.254;12.988;2024-01-30T10:40:02;25.85;;;10.02;;
5823;SDS011;2938;52.254;12.988;2024-01-30T10:42:31;20.73;;;9.63;;
5823;SDS011;2938;52.254;12.988;2024-01-30T10:45:01;17.08;;;10.10;;
5823;SDS011;2938;52.254;12.988;2024-01-30T10:47:31;15.55;;;9.98;;
5823;SDS011;2938;52.254;12.988;2024-01-30T10:49:59;17.83;;;10.32;;
5823;SDS011;2938;52.254;12.988;2024-01-30T10:52:24;15.10;;;10.07;;
5823;SDS011;2938;52.254;12.988;2024-01-30T10:54:50;16.92;;;9.63;;
5823;SDS011;2938;52.254;12.988;2024-01-30T10:57:17;16.35;;;8.57;;
5823;SDS011;2938;52.254;12.988;2024-01-30T10:59:42;14.73;;;8.63;;
5823;SDS011;2938;52.254;12.988;2024-01-30T11:02:09;16.02;;;9.20;;
5823;SDS011;2938;52.254;12.988;2024-01-30T11:04:36;20.60;;;9.70;;
5823;SDS011;2938;52.254;12.988;2024-01-30T11:07:01;17.63;;;9.35;;
5823;SDS011;2938;52.254;12.988;2024-01-30T11:09:29;13.68;;;9.10;;
5823;SDS011;2938;52.254;12.988;2024-01-30T11:11:56;15.82;;;8.93;;
5823;SDS011;2938;52.254;12.988;2024-01-30T11:14:25;19.75;;;9.50;;
5823;SDS011;2938;52.254;12.988;2024-01-30T11:16:51;22.33;;;11.80;;
5823;SDS011;2938;52.254;12.988;2024-01-30T11:19:24;18.95;;;8.30;;
5823;SDS011;2938;52.254;12.988;2024-01-30T11:21:51;21.77;;;10.15;;
5823;SDS011;2938;52.254;12.988;2024-01-30T11:24:22;14.00;;;8.55;;
5823;SDS011;2938;52.254;12.988;2024-01-30T11:26:48;17.60;;;10.50;;
5823;SDS011;2938;52.254;12.988;2024-01-30T11:32:16;16.13;;;9.02;;
5823;SDS011;2938;52.254;12.988;2024-01-30T11:34:48;16.45;;;8.23;;
5823;SDS011;2938;52.254;12.988;2024-01-30T11:37:14;14.43;;;9.50;;
5823;SDS011;2938;52.254;12.988;2024-01-30T11:39:40;12.10;;;9.23;;
5823;SDS011;2938;52.254;12.988;2024-01-30T11:42:07;16.05;;;9.18;;
5823;SDS011;2938;52.254;12.988;2024-01-30T11:44:33;14.07;;;7.93;;
5823;SDS011;2938;52.254;12.988;2024-01-30T11:46:59;16.95;;;9.95;;
5823;SDS011;2938;52.254;12.988;2024-01-30T11:49:24;16.98;;;9.57;;
5823;SDS011;2938;52.254;12.988;2024-01-30T11:51:50;14.82;;;9.48;;
5823;SDS011;2938;52.254;12.988;2024-01-30T11:54:15;17.08;;;9.50;;
5823;SDS011;2938;52.254;12.988;2024-01-30T11:56:41;17.30;;;9.05;;
5823;SDS011;2938;52.254;12.988;2024-01-30T11:59:07;17.13;;;9.90;;
5823;SDS011;2938;52.254;12.988;2024-01-30T12:01:33;18.10;;;10.48;;
5823;SDS011;2938;52.254;12.988;2024-01-30T12:03:58;17.00;;;9.40;;
5823;SDS011;2938;52.254;12.988;2024-01-30T12:06:24;13.68;;;9.40;;
5823;SDS011;2938;52.254;12.988;2024-01-30T12:08:57;27.83;;;12.07;;
5823;SDS011;2938;52.254;12.988;2024-01-30T12:11:24;13.90;;;9.02;;
5823;SDS011;2938;52.254;12.988;2024-01-30T12:13:50;18.88;;;9.32;;
5823;SDS011;2938;52.254;12.988;2024-01-30T12:16:16;19.13;;;10.02;;
5823;SDS011;2938;52.254;12.988;2024-01-30T12:18:42;14.23;;;8.63;;
5823;SDS011;2938;52.254;12.988;2024-01-30T12:21:07;14.98;;;9.80;;
5823;SDS011;2938;52.254;12.988;2024-01-30T12:23:34;19.50;;;9.57;;
5823;SDS011;2938;52.254;12.988;2024-01-30T12:26:00;19.02;;;10.18;;
5823;SDS011;2938;52.254;12.988;2024-01-30T12:28:31;14.15;;;9.30;;
5823;SDS011;2938;52.254;12.988;2024-01-30T12:31:00;18.17;;;9.82;;
5823;SDS011;2938;52.254;12.988;2024-01-30T12:33:26;12.40;;;8.85;;
5823;SDS011;2938;52.254;12.988;2024-01-30T12:35:53;13.50;;;9.93;;
5823;SDS011;2938;52.254;12.988;2024-01-30T12:38:18;12.88;;;8.52;;
5823;SDS011;2938;52.254;12.988;2024-01-30T12:40:44;18.60;;;10.15;;
5823;SDS011;2938;52.254;12.988;2024-01-30T12:43:09;13.65;;;9.68;;
5823;SDS011;2938;52.254;12.988;2024-01-30T12:45:35;12.73;;;9.05;;
5823;SDS011;2938;52.254;12.988;2024-01-30T12:48:01;16.95;;;9.77;;
5823;SDS011;2938;52.254;12.988;2024-01-30T12:50:27;17.67;;;10.05;;
5823;SDS011;2938;52.254;12.988;2024-01-30T12:52:53;19.63;;;11.50;;
5823;SDS011;2938;52.254;12.988;2024-01-30T12:55:21;21.17;;;9.90;;
5823;SDS011;2938;52.254;12.988;2024-01-30T12:57:53;18.23;;;9.65;;
5823;SDS011;2938;52.254;12.988;2024-01-30T13:00:21;16.98;;;8.75;;
5823;SDS011;2938;52.254;12.988;2024-01-30T13:02:47;15.43;;;10.43;;
5823;SDS011;2938;52.254;12.988;2024-01-30T13:05:13;15.02;;;9.70;;
5823;SDS011;2938;52.254;12.988;2024-01-30T13:07:38;14.10;;;9.00;;
5823;SDS011;2938;52.254;12.988;2024-01-30T13:10:03;14.75;;;10.15;;
5823;SDS011;2938;52.254;12.988;2024-01-30T13:12:29;16.55;;;9.65;;
5823;SDS011;2938;52.254;12.988;2024-01-30T13:14:57;14.55;;;9.20;;
5823;SDS011;2938;52.254;12.988;2024-01-30T13:17:22;19.10;;;10.18;;
5823;SDS011;2938;52.254;12.988;2024-01-30T13:19:54;17.08;;;10.20;;
5823;SDS011;2938;52.254;12.988;2024-01-30T13:22:19;16.27;;;9.77;;
5823;SDS011;2938;52.254;12.988;2024-01-30T13:24:48;19.00;;;9.30;;
5823;SDS011;2938;52.254;12.988;2024-01-30T13:27:13;18.17;;;10.05;;
5823;SDS011;2938;52.254;12.988;2024-01-30T13:29:39;12.52;;;9.35;;
5823;SDS011;2938;52.254;12.988;2024-01-30T13:32:04;15.70;;;9.38;;
5823;SDS011;2938;52.254;12.988;2024-01-30T13:34:30;19.55;;;9.52;;
5823;SDS011;2938;52.254;12.988;2024-01-30T13:36:56;12.50;;;8.27;;
5823;SDS011;2938;52.254;12.988;2024-01-30T13:39:21;13.98;;;9.23;;
5823;SDS011;2938;52.254;12.988;2024-01-30T13:41:47;18.13;;;9.73;;
5823;SDS011;2938;52.254;12.988;2024-01-30T13:44:13;15.30;;;9.40;;
5823;SDS011;2938;52.254;12.988;2024-01-30T13:46:38;19.83;;;10.15;;
5823;SDS011;2938;52.254;12.988;2024-01-30T13:49:04;16.00;;;9.93;;
5823;SDS011;2938;52.254;12.988;2024-01-30T13:51:29;18.02;;;9.95;;
5823;SDS011;2938;52.254;12.988;2024-01-30T13:53:55;14.50;;;9.73;;
5823;SDS011;2938;52.254;12.988;2024-01-30T13:58:56;18.40;;;9.30;;
5823;SDS011;2938;52.254;12.988;2024-01-30T14:01:32;14.60;;;8.27;;
5823;SDS011;2938;52.254;12.988;2024-01-30T14:03:57;18.35;;;9.70;;
5823;SDS011;2938;52.254;12.988;2024-01-30T14:06:23;16.23;;;9.57;;
5823;SDS011;2938;52.254;12.988;2024-01-30T14:08:48;14.88;;;9.90;;
5823;SDS011;2938;52.254;12.988;2024-01-30T14:11:13;15.88;;;8.88;;
5823;SDS011;2938;52.254;12.988;2024-01-30T14:13:49;15.65;;;9.32;;
5823;SDS011;2938;52.254;12.988;2024-01-30T14:16:15;13.23;;;8.95;;
5823;SDS011;2938;52.254;12.988;2024-01-30T14:18:40;13.48;;;9.15;;
5823;SDS011;2938;52.254;12.988;2024-01-30T14:21:06;17.63;;;9.45;;
5823;SDS011;2938;52.254;12.988;2024-01-30T14:23:32;11.52;;;9.02;;
5823;SDS011;2938;52.254;12.988;2024-01-30T14:25:58;14.57;;;10.07;;
5823;SDS011;2938;52.254;12.988;2024-01-30T14:28:23;25.13;;;10.07;;
5823;SDS011;2938;52.254;12.988;2024-01-30T14:30:48;14.88;;;9.25;;
5823;SDS011;2938;52.254;12.988;2024-01-30T14:33:14;19.30;;;10.95;;
5823;SDS011;2938;52.254;12.988;2024-01-30T14:35:39;22.67;;;9.30;;
5823;SDS011;2938;52.254;12.988;2024-01-30T14:38:05;13.70;;;9.43;;
5823;SDS011;2938;52.254;12.988;2024-01-30T14:40:32;18.65;;;10.48;;
5823;SDS011;2938;52.254;12.988;2024-01-30T14:42:57;16.65;;;11.00;;